UVAGARNER FIELD
METARs for nearby airports:
N 0 941' KUVA 201855Z 02012G15KT 10SM SCT036 SCT045 BKN049 31/21 A2981
E 30 930' KHDO 201851Z 07015KT 10SM SCT035 OVC045 32/23 A2981
S 41 598' KCZT 201855Z 03010KT 10SM BKN031 BKN038 OVC050 30/22 A2977
E 47 773' KCVB 201855Z 05011G15KT 10SM SCT029 OVC040 28/20 A2982
NW 49 2372' KECU 201855Z 07008G16KT 030V100 10SM FEW038 FEW048 31/18 A2993
SE 53 474' KCOT 201853Z 02010KT 10SM SCT029 BKN042 OVC060 30/23 A2976
W 54 1081' KDLF 201855Z 06009KT 10SM FEW050 BKN060 BKN190 34/20 A2979
NE 57 1616' KERV 201855Z 05008KT 10SM SCT025 BKN048 OVC095 28/22 A2987
E 61 690' KSKF 201856Z 06013KT 10SM FEW022 BKN043 28/22 A2979
W 62 1002' KDRT 201853Z 25005KT 10SM BKN055 BKN065 33/21 A2979
E 66 430' KPEZ 201855Z 06005KT 10SM -RA SCT006 BKN022 OVC038 25/25 A2980
E 67 577' KSSF 201853Z 07010KT 10SM -RA FEW016 BKN028 OVC043 27/24 A2979
E 69 809' KSAT 201851Z 05009KT 10SM SCT010 BKN040 OVC070 27/23 A2982
N 78 1753' KJCT 201851Z 08008KT 030V110 10SM SCT047 32/19 A2987
E 79 762' KRND 201756Z 07010KT 7SM SCT012 BKN020 26/23 A2982
E 93 658' KBAZ 201851Z 06007KT 10SM SCT010 BKN019 26/24 A2982
NW 95 2139' KSOA 201855Z VRB06KT 10SM CLR 31/19 A2993
TAFs for nearby airports:
W 54 1081' KDLF TAF KDLF 201800Z 2018/2200 09012KT 9999 SCT040 QNH2968INS
  BECMG 2102/2103 13012KT 9999 BKN040 QNH2975INS
  BECMG 2108/2109 09006KT 9999 OVC015 QNH2975INS
  TEMPO 2111/2113 OVC009
  BECMG 2116/2117 12009KT 9999 SCT030 QNH2982INS TX36/2020Z TN23/2111Z
E 61 690' KSKF TAF KSKF 201800Z 2018/2124 06012KT 8000 -SHRA BKN025 QNH2976INS
  BECMG 2100/2101 11012KT 9999 VCSH SCT015 BKN035 QNH2975INS
  BECMG 2106/2107 11009KT 9999 VCSH BKN015 BKN025 QNH2980INS
  TEMPO 2107/2109 8000 -RA BKN009 OVC015
  BECMG 2108/2109 08009KT 9999 NSW SCT015 BKN030 QNH2985INS
  BECMG 2115/2116 06012KT 8000 -SHRA BKN010 OVC020 QNH2990INS TX31/2022Z TN23/2112Z
W 62 1002' KDRT TAF KDRT 201735Z 2018/2118 08008KT P6SM SCT040 OVC050
  FM210900 08006KT P6SM OVC025
E 67 577' KSSF KSSF 201735Z 2018/2118 08010KT P6SM VCSH BKN018 BKN025
  FM210300 14006KT P6SM OVC010
  FM210800 09005KT P6SM OVC007
  FM211000 10003KT 3SM BR OVC003
  FM211500 11006KT P6SM BKN015
E 69 809' KSAT KSAT 201735Z 2018/2124 06011KT P6SM VCSH BKN012
  FM210300 14006KT P6SM OVC010
  FM210800 09005KT P6SM OVC007
  FM211000 10003KT 3SM BR OVC003
  FM211500 11006KT P6SM BKN015
  FM211800 12010KT P6SM SCT040 BKN100
N 78 1753' KJCT TAF KJCT 201720Z 2018/2118 07007KT P6SM BKN050 BKN250
  FM211000 11006KT P6SM BKN025
E 79 762' KRND TAF TAF
  AMD KRND 201850Z 2018/2123 06012KT 8000 -SHRA SCT012 BKN020 QNH2978INS
  BECMG 2100/2101 11012KT 9999 VCSH SCT015 BKN035 QNH2975INS
  BECMG 2106/2107 11009KT 9999 VCSH BKN015 BKN025 QNH2980INS
  TEMPO 2107/2109 8000 -RA BKN009 OVC015
  BECMG 2108/2109 08009KT 9999 NSW SCT015 BKN030 QNH2985INS
  BECMG 2115/2116 06012KT 8000 -SHRA BKN010 OVC020 QNH2990INS TX31/2022Z TN23/2112Z LAST NO
  AMDS AFT 2100 NEXT 2109
NW 95 2139' KSOA TAF KSOA 201720Z 2018/2118 VRB03KT P6SM BKN050
  FM202200 15005KT P6SM SCT050 SCT250
Area forecast:
000
FAUS44 KKCI 101845
FA4W  
DFWC FA 101845
SYNOPSIS AND VFR CLDS/WX
SYNOPSIS VALID UNTIL 111300
CLDS/WX VALID UNTIL 110700...OTLK VALID 110700-111300
OK TX AR TN LA MS AL
.
SEE AIRMET SIERRA FOR IFR CONDS AND MTN OBSCN.
TS IMPLY SEV OR GTR TURB SEV ICE LLWS AND IFR CONDS.
NON MSL HGTS DENOTED BY AGL OR CIG.
.
SYNOPSIS...LOW PRES OVR SERN MO WITH CDFNT THRU ERN AR-NERN
LA-NWRN GLFMEX. BY 13Z LOW OVR SERN IN WITH CDFNT THRU E MIDDLE
TN-NERN AL-SERN MA-SERN LA-NWRN GLFMEX.
.
OK
PNHDL-W...SKC. TIL 22Z OCNL SCT060 WND N G25KT. OTLK...VFR.
CNTRL-SE....SCT-BKN040 TOP 100. 22Z SCT040. 02Z SKC. OTLK...VFR.
NERN...BKN030 TOP 060. 22Z SCT-BKN040. 01Z SCT040. OTLK...XTRM
NERN MVFR BR ELSW VFR.
.
NWRN TX
PNHDL...SKC. OTLK...VFR.
S PLAINS...SCT150. S PTN OCNL SCT070. 22Z N PTN SKC. 02Z S PTN
SKC. OTLK...VFR.
.
SWRN TX
MTNS WWD...
N PTN.. SCT120 SCT CI. 01Z SKC. OTLK...VFR.
S PTN..BKN090 TOP 120. 23Z SCT080-100. OTLK...VFR.
RMNDR...
W PTN..SCT-BKN080 TOP 140. 23Z SCT080. OTLK...VFR.
E PTN..BKN050-070 TOP 150. ISOL -SHRA. 02Z N PTN SCT080. S PTN
BKN060 TOP 160. OTLK...VFR.
.
N CNTRL TX
SCT060-080 SCT CI. 23Z SCT120-140. OTLK...VFR.
.
NERN TX
SCT025 SCT-BKN060 TOP 120. 23Z SCT120-140. OTLK...VFR.
.
SERN TX
CSTL SXNS...BKN025 TOP 160. CSTLN ISOL -TSRA. CB TOP FL400.
23Z SCT025 SCT-BKN060 TOP 120. 03Z SCT040. OTLK...VFR.
INLAND...SCT040 SCT140 SCT-BKN CI. 01Z SCT150 SCT CI. OTLK...VFR.
.
S CNTRL TX
CSTL PLAINS-LWR RIOGD...
VCNTY CSTLN..BKN020 TOP FL180. WDLY SCT -SHRA/ISOL -TSRA. CB TOP
FL450. BECMG 2123 BKN020 TOP 140.  05Z BKN040. OTLK...VFR.
INLAND..BKN035 TOP 120. BECMG 0305 BKN040 TOP 100. OTLK...VFR.
HILL COUNTRY...BKN070 TOP FL200. 23Z SCT070 BKN120. 03Z SCT070
SCT120. OTLK...VFR.
RMNDR...
N PTN..BKN040 TOP 120. 23Z SCT-BKN050 TOP 100. 03Z SCT060 SCT CI.
OTLK...VFR.
S PTN..BKN030 TOP 160. TIL 21Z WDLY SCT -SHRA. OTLK...MVFR CIG.
.
AR
NW...OVC030 TOP FL180. BECMG 0204 SCT030. OTLK...XTRM N MVFR CIG
09Z IFR CIG BR ELSW VFR.
SW...SCT030 SCT140. 00Z SCT100 SCT CI. OTLK...VFR.
E HLF...BKN040 TOP 160. ISOL -TSRA. CB TOP FL420. 01Z SCT030
SCT120. OTLK...VFR 09Z MVFR BR.
.
LA
N-CNTRL...SCT025 SCT-BKN050 TOP 100. 21Z E PTN TOP 140. ISOL
-TSRA. CB TOP FL450. 02Z SCT CI. OTLK...VFR.
S...BKN-SCT025 BKN050 TOP FL210. WDLY SCT -SHRA/ISOL -TSRA. CB
TOP FL450. BECMG 0204 SCT025 SCT140 SCT-BKN CI. OTLK...W PTN VFR
10Z MVFR CIG BR E PTN MVFR BR 10Z IFR CIG BR.
.
TN
W...BKN040 TOP 160. ISOL -TSRA. CB TOP FL420. BECMG 0103
BKN-SCT025 TOP 120. OTLK...MVFR CIG BR.
MIDDLE...OVC030 TOP FL200. WDLY SCT -SHRA/TSRA. CB TOP FL450. 00Z
BKN040 TOP 140. WDLY SCT -SHRA/ISOL -TSRA. CB TOP FL420.
05Z OCNL VIS 3SM BR. OTLK...MVFR CIG BR 09Z IFR CIG BR.
E...SCT025 BKN040 TOP FL250. WDLY SCT -SHRA/TSRA. CB TOP FL450.
BECMG 0305 BKN040. WDLY SCT -SHRA. OCNL VIS 3SM BR. OTLK...MVFR
CIG SHRA BR 09Z IFR CIG BR.
.
MS AL
N-CNTRL PTN...
W MS..BKN-SCT040 TOP 140. ISOL -SHRA/TSRA. CB TOP FL420.
BECMG 0204 BKN035 TOP 100. OTLK...MVFR CIG BR.
ELSW..BKN-SCT025 BKN040 TOP FL240. WDLY SCT -SHRA/TSRA. CB TOP
FL450. BECMG 0002 BKN040 TOP 140. ISOL -SHRA/TSRA.
06Z BKN010-020 TOP 060. OCNL VIS 3SM BR. OTLK...MVFR CIG BR
09Z IFR CIG BR.
S PTN...BKN025 TOP FL220. WDLY SCT -SHRA. ISOL -TSRA. CB TOP
FL450. BECMG 0305 SCT020 SCT100. OCNL VIS 3SM BR. OTLK...MVFR BR
09Z IFR CIG BR.
.
THE AREA FORECAST WILL TERMINATE AT 2359Z ON 10 OCTOBER 2017. IN
PLACE OF THE AREA FORECAST PLEASE SEE THE GRAPHICAL FORECAST AT
WWW.AVIATIONWEATHER.GOV/GFA. GRAPHICAL AND TEXT AIRMETS WILL
CONTINUE AS REGULARLY SCHEDULED.
....

Shortcut to this page: http://wxbay.com.

Data may contain errors.